sensor_id;sensor_type;location;lat;lon;timestamp;temperature;humidity
68578;SHT31;61668;45.388;11.784;2022-10-04T00:03:10;18.38;76.83
68578;SHT31;61668;45.388;11.784;2022-10-04T00:05:43;18.39;76.82
68578;SHT31;61668;45.388;11.784;2022-10-04T00:08:28;18.38;76.81
68578;SHT31;61668;45.388;11.784;2022-10-04T00:11:24;18.35;76.81
68578;SHT31;61668;45.388;11.784;2022-10-04T00:13:56;18.35;76.77
68578;SHT31;61668;45.388;11.784;2022-10-04T00:16:46;18.33;76.69
68578;SHT31;61668;45.388;11.784;2022-10-04T00:37:00;18.29;76.90
68578;SHT31;61668;45.388;11.784;2022-10-04T00:39:38;18.28;76.91
68578;SHT31;61668;45.388;11.784;2022-10-04T00:45:15;18.31;76.92
68578;SHT31;61668;45.388;11.784;2022-10-04T00:47:55;18.34;76.94
68578;SHT31;61668;45.388;11.784;2022-10-04T00:50:29;18.35;76.89
68578;SHT31;61668;45.388;11.784;2022-10-04T00:53:01;18.38;76.89
68578;SHT31;61668;45.388;11.784;2022-10-04T00:55:39;18.36;76.87
68578;SHT31;61668;45.388;11.784;2022-10-04T00:58:14;18.34;76.87
68578;SHT31;61668;45.388;11.784;2022-10-04T01:00:46;18.32;76.83
68578;SHT31;61668;45.388;11.784;2022-10-04T01:03:17;18.31;76.80
68578;SHT31;61668;45.388;11.784;2022-10-04T01:06:10;18.28;76.88
68578;SHT31;61668;45.388;11.784;2022-10-04T01:08:39;18.28;76.93
68578;SHT31;61668;45.388;11.784;2022-10-04T01:11:13;18.31;76.99
68578;SHT31;61668;45.388;11.784;2022-10-04T01:14:01;18.32;76.92
68578;SHT31;61668;45.388;11.784;2022-10-04T01:16:57;18.35;76.90
68578;SHT31;61668;45.388;11.784;2022-10-04T01:24:32;18.34;76.75
68578;SHT31;61668;45.388;11.784;2022-10-04T01:27:01;18.29;76.70
68578;SHT31;61668;45.388;11.784;2022-10-04T01:29:27;18.20;76.70
68578;SHT31;61668;45.388;11.784;2022-10-04T01:31:59;18.09;76.84
68578;SHT31;61668;45.388;11.784;2022-10-04T01:34:26;18.02;76.95
68578;SHT31;61668;45.388;11.784;2022-10-04T01:36:54;18.00;77.05
68578;SHT31;61668;45.388;11.784;2022-10-04T01:39:24;17.99;76.98
68578;SHT31;61668;45.388;11.784;2022-10-04T01:47:54;17.83;77.10
68578;SHT31;61668;45.388;11.784;2022-10-04T01:50:31;17.80;77.10
68578;SHT31;61668;45.388;11.784;2022-10-04T01:53:06;17.74;77.17
68578;SHT31;61668;45.388;11.784;2022-10-04T01:55:37;17.70;77.18
68578;SHT31;61668;45.388;11.784;2022-10-04T01:58:25;17.67;77.20
68578;SHT31;61668;45.388;11.784;2022-10-04T02:01:04;17.65;77.19
68578;SHT31;61668;45.388;11.784;2022-10-04T02:03:43;17.64;77.19
68578;SHT31;61668;45.388;11.784;2022-10-04T02:06:18;17.62;77.19
68578;SHT31;61668;45.388;11.784;2022-10-04T02:08:46;17.60;77.23
68578;SHT31;61668;45.388;11.784;2022-10-04T02:11:18;17.58;77.29
68578;SHT31;61668;45.388;11.784;2022-10-04T02:13:46;17.53;77.32
68578;SHT31;61668;45.388;11.784;2022-10-04T02:16:15;17.46;77.31
68578;SHT31;61668;45.388;11.784;2022-10-04T02:18:42;17.42;77.30
68578;SHT31;61668;45.388;11.784;2022-10-04T02:21:09;17.38;77.22
68578;SHT31;61668;45.388;11.784;2022-10-04T02:23:37;17.34;77.23
68578;SHT31;61668;45.388;11.784;2022-10-04T02:26:08;17.30;77.39
68578;SHT31;61668;45.388;11.784;2022-10-04T02:28:36;17.28;77.40
68578;SHT31;61668;45.388;11.784;2022-10-04T02:31:02;17.26;77.39
68578;SHT31;61668;45.388;11.784;2022-10-04T02:33:49;17.22;77.54
68578;SHT31;61668;45.388;11.784;2022-10-04T02:36:17;17.16;77.69
68578;SHT31;61668;45.388;11.784;2022-10-04T02:38:50;17.13;77.66
68578;SHT31;61668;45.388;11.784;2022-10-04T02:41:42;17.08;77.65
68578;SHT31;61668;45.388;11.784;2022-10-04T02:44:17;17.05;77.81
68578;SHT31;61668;45.388;11.784;2022-10-04T02:47:06;17.02;77.93
68578;SHT31;61668;45.388;11.784;2022-10-04T02:50:08;16.99;78.28
68578;SHT31;61668;45.388;11.784;2022-10-04T02:52:47;16.95;78.54
68578;SHT31;61668;45.388;11.784;2022-10-04T02:55:23;16.93;78.71
68578;SHT31;61668;45.388;11.784;2022-10-04T02:57:53;16.92;78.86
68578;SHT31;61668;45.388;11.784;2022-10-04T03:00:22;16.90;79.04
68578;SHT31;61668;45.388;11.784;2022-10-04T03:06:03;16.87;79.19
68578;SHT31;61668;45.388;11.784;2022-10-04T03:08:44;16.87;79.20
68578;SHT31;61668;45.388;11.784;2022-10-04T03:11:14;16.86;79.11
68578;SHT31;61668;45.388;11.784;2022-10-04T03:13:44;16.87;79.18
68578;SHT31;61668;45.388;11.784;2022-10-04T03:16:12;16.89;79.11
68578;SHT31;61668;45.388;11.784;2022-10-04T03:18:39;16.91;79.04
68578;SHT31;61668;45.388;11.784;2022-10-04T03:21:07;16.90;78.98
68578;SHT31;61668;45.388;11.784;2022-10-04T03:23:36;16.88;78.90
68578;SHT31;61668;45.388;11.784;2022-10-04T03:26:13;16.85;78.90
68578;SHT31;61668;45.388;11.784;2022-10-04T03:28:48;16.79;78.90
68578;SHT31;61668;45.388;11.784;2022-10-04T03:31:14;16.76;78.88
68578;SHT31;61668;45.388;11.784;2022-10-04T03:33:41;16.74;78.88
68578;SHT31;61668;45.388;11.784;2022-10-04T03:36:09;16.71;78.82
68578;SHT31;61668;45.388;11.784;2022-10-04T03:38:41;16.69;78.79
68578;SHT31;61668;45.388;11.784;2022-10-04T03:41:11;16.69;78.74
68578;SHT31;61668;45.388;11.784;2022-10-04T03:43:40;16.69;78.78
68578;SHT31;61668;45.388;11.784;2022-10-04T03:46:09;16.68;78.78
68578;SHT31;61668;45.388;11.784;2022-10-04T03:48:59;16.66;78.82
68578;SHT31;61668;45.388;11.784;2022-10-04T03:51:25;16.63;78.90
68578;SHT31;61668;45.388;11.784;2022-10-04T03:53:52;16.59;78.89
68578;SHT31;61668;45.388;11.784;2022-10-04T03:56:32;16.55;78.90
68578;SHT31;61668;45.388;11.784;2022-10-04T03:59:04;16.50;78.82
68578;SHT31;61668;45.388;11.784;2022-10-04T04:05:06;16.44;78.69
68578;SHT31;61668;45.388;11.784;2022-10-04T04:10:58;16.42;78.81
68578;SHT31;61668;45.388;11.784;2022-10-04T04:16:07;16.40;78.90
68578;SHT31;61668;45.388;11.784;2022-10-04T04:18:34;16.38;78.90
68578;SHT31;61668;45.388;11.784;2022-10-04T04:21:03;16.34;78.88
68578;SHT31;61668;45.388;11.784;2022-10-04T04:23:36;16.28;78.84
68578;SHT31;61668;45.388;11.784;2022-10-04T04:29:23;16.15;78.89
68578;SHT31;61668;45.388;11.784;2022-10-04T04:32:23;16.09;78.94
68578;SHT31;61668;45.388;11.784;2022-10-04T04:34:56;16.03;78.85
68578;SHT31;61668;45.388;11.784;2022-10-04T04:37:34;15.94;78.92
68578;SHT31;61668;45.388;11.784;2022-10-04T04:40:21;15.87;79.16
68578;SHT31;61668;45.388;11.784;2022-10-04T04:42:49;15.85;79.28
68578;SHT31;61668;45.388;11.784;2022-10-04T04:45:17;15.87;79.29
68578;SHT31;61668;45.388;11.784;2022-10-04T04:47:48;15.87;79.26
68578;SHT31;61668;45.388;11.784;2022-10-04T04:50:20;15.88;79.21
68578;SHT31;61668;45.388;11.784;2022-10-04T04:52:54;15.88;79.18
68578;SHT31;61668;45.388;11.784;2022-10-04T04:55:25;15.88;79.21
68578;SHT31;61668;45.388;11.784;2022-10-04T04:57:55;15.88;79.33
68578;SHT31;61668;45.388;11.784;2022-10-04T05:00:26;15.86;79.42
68578;SHT31;61668;45.388;11.784;2022-10-04T05:02:58;15.84;79.50
68578;SHT31;61668;45.388;11.784;2022-10-04T05:05:27;15.83;79.60
68578;SHT31;61668;45.388;11.784;2022-10-04T05:10:48;15.84;79.78
68578;SHT31;61668;45.388;11.784;2022-10-04T05:16:35;15.85;79.86
68578;SHT31;61668;45.388;11.784;2022-10-04T05:21:46;15.87;79.86
68578;SHT31;61668;45.388;11.784;2022-10-04T05:24:21;15.88;79.80
68578;SHT31;61668;45.388;11.784;2022-10-04T05:26:52;15.87;79.73
68578;SHT31;61668;45.388;11.784;2022-10-04T05:29:25;15.84;79.76
68578;SHT31;61668;45.388;11.784;2022-10-04T05:34:31;15.77;79.77
68578;SHT31;61668;45.388;11.784;2022-10-04T05:42:42;15.73;79.92
68578;SHT31;61668;45.388;11.784;2022-10-04T05:45:12;15.73;80.05
68578;SHT31;61668;45.388;11.784;2022-10-04T05:47:38;15.76;80.15
68578;SHT31;61668;45.388;11.784;2022-10-04T05:50:06;15.78;80.20
68578;SHT31;61668;45.388;11.784;2022-10-04T05:53:19;15.82;80.25
68578;SHT31;61668;45.388;11.784;2022-10-04T05:58:50;15.88;80.38
68578;SHT31;61668;45.388;11.784;2022-10-04T06:04:15;16.02;80.48
68578;SHT31;61668;45.388;11.784;2022-10-04T06:06:58;16.12;80.49
68578;SHT31;61668;45.388;11.784;2022-10-04T06:16:11;16.41;79.80
68578;SHT31;61668;45.388;11.784;2022-10-04T06:21:56;16.58;79.43
68578;SHT31;61668;45.388;11.784;2022-10-04T06:24:34;16.65;79.44
68578;SHT31;61668;45.388;11.784;2022-10-04T06:29:54;16.76;79.18
68578;SHT31;61668;45.388;11.784;2022-10-04T06:50:49;17.28;77.00
68578;SHT31;61668;45.388;11.784;2022-10-04T07:02:15;17.49;75.67
68578;SHT31;61668;45.388;11.784;2022-10-04T07:04:49;17.53;75.12
68578;SHT31;61668;45.388;11.784;2022-10-04T07:10:02;17.63;74.42
68578;SHT31;61668;45.388;11.784;2022-10-04T07:13:03;17.66;73.68
68578;SHT31;61668;45.388;11.784;2022-10-04T07:18:28;17.78;72.97
68578;SHT31;61668;45.388;11.784;2022-10-04T07:21:08;17.85;72.29
68578;SHT31;61668;45.388;11.784;2022-10-04T07:23:50;17.94;72.22
68578;SHT31;61668;45.388;11.784;2022-10-04T07:26:36;18.04;72.28
68578;SHT31;61668;45.388;11.784;2022-10-04T07:29:16;18.12;71.70
68578;SHT31;61668;45.388;11.784;2022-10-04T07:31:49;18.18;71.78
68578;SHT31;61668;45.388;11.784;2022-10-04T07:37:17;18.37;71.58
68578;SHT31;61668;45.388;11.784;2022-10-04T07:39:49;18.44;71.34
68578;SHT31;61668;45.388;11.784;2022-10-04T07:48:15;18.75;70.33
68578;SHT31;61668;45.388;11.784;2022-10-04T07:53:48;18.98;69.76
68578;SHT31;61668;45.388;11.784;2022-10-04T07:56:20;19.03;69.34
68578;SHT31;61668;45.388;11.784;2022-10-04T07:59:04;19.11;68.85
68578;SHT31;61668;45.388;11.784;2022-10-04T08:01:49;19.22;68.79
68578;SHT31;61668;45.388;11.784;2022-10-04T08:13:58;20.34;66.92
68578;SHT31;61668;45.388;11.784;2022-10-04T08:27:28;24.00;59.05
68578;SHT31;61668;45.388;11.784;2022-10-04T08:35:38;25.88;55.11
68578;SHT31;61668;45.388;11.784;2022-10-04T09:11:13;25.79;51.35
68578;SHT31;61668;45.388;11.784;2022-10-04T09:17:35;25.04;52.70
68578;SHT31;61668;45.388;11.784;2022-10-04T09:20:23;25.10;52.65
68578;SHT31;61668;45.388;11.784;2022-10-04T09:23:07;25.24;52.63
68578;SHT31;61668;45.388;11.784;2022-10-04T09:40:47;25.12;52.45
68578;SHT31;61668;45.388;11.784;2022-10-04T10:01:46;25.02;52.54
68578;SHT31;61668;45.388;11.784;2022-10-04T10:04:32;24.90;52.52
68578;SHT31;61668;45.388;11.784;2022-10-04T10:10:25;24.80;52.95
68578;SHT31;61668;45.388;11.784;2022-10-04T10:37:32;25.09;53.10
68578;SHT31;61668;45.388;11.784;2022-10-04T10:40:15;25.15;53.23
68578;SHT31;61668;45.388;11.784;2022-10-04T10:49:01;24.99;53.41
68578;SHT31;61668;45.388;11.784;2022-10-04T10:52:28;25.00;53.94
68578;SHT31;61668;45.388;11.784;2022-10-04T11:07:41;24.89;53.54
68578;SHT31;61668;45.388;11.784;2022-10-04T11:10:24;24.84;54.14
68578;SHT31;61668;45.388;11.784;2022-10-04T11:13:18;24.81;53.90
68578;SHT31;61668;45.388;11.784;2022-10-04T11:22:45;24.74;54.17
68578;SHT31;61668;45.388;11.784;2022-10-04T11:36:28;24.90;53.91
68578;SHT31;61668;45.388;11.784;2022-10-04T11:45:55;24.96;54.04
68578;SHT31;61668;45.388;11.784;2022-10-04T12:15:21;25.01;53.73
68578;SHT31;61668;45.388;11.784;2022-10-04T12:40:41;25.10;54.16
68578;SHT31;61668;45.388;11.784;2022-10-04T12:54:35;25.00;54.06
68578;SHT31;61668;45.388;11.784;2022-10-04T13:00:25;25.00;54.23
68578;SHT31;61668;45.388;11.784;2022-10-04T13:08:28;24.85;54.29
68578;SHT31;61668;45.388;11.784;2022-10-04T13:22:44;24.65;54.93
68578;SHT31;61668;45.388;11.784;2022-10-04T13:31:01;24.59;55.08
68578;SHT31;61668;45.388;11.784;2022-10-04T13:34:02;24.54;54.67
68578;SHT31;61668;45.388;11.784;2022-10-04T13:54:33;24.15;55.32
68578;SHT31;61668;45.388;11.784;2022-10-04T13:57:29;24.10;55.72
68578;SHT31;61668;45.388;11.784;2022-10-04T14:00:18;24.09;55.87
68578;SHT31;61668;45.388;11.784;2022-10-04T14:15:24;23.98;55.71
68578;SHT31;61668;45.388;11.784;2022-10-04T14:33:02;23.65;56.54
68578;SHT31;61668;45.388;11.784;2022-10-04T15:07:20;23.11;58.15
68578;SHT31;61668;45.388;11.784;2022-10-04T15:09:56;23.11;58.54
68578;SHT31;61668;45.388;11.784;2022-10-04T15:23:05;22.94;58.76
68578;SHT31;61668;45.388;11.784;2022-10-04T15:25:44;22.90;58.70
68578;SHT31;61668;45.388;11.784;2022-10-04T15:32:14;22.82;58.97
68578;SHT31;61668;45.388;11.784;2022-10-04T15:38:24;22.73;59.20
68578;SHT31;61668;45.388;11.784;2022-10-04T15:41:18;22.71;59.51
68578;SHT31;61668;45.388;11.784;2022-10-04T16:00:44;22.40;60.07
68578;SHT31;61668;45.388;11.784;2022-10-04T16:06:53;22.27;60.42
68578;SHT31;61668;45.388;11.784;2022-10-04T16:09:41;22.23;60.63
68578;SHT31;61668;45.388;11.784;2022-10-04T16:12:39;22.18;61.23
68578;SHT31;61668;45.388;11.784;2022-10-04T16:15:41;22.14;62.47
68578;SHT31;61668;45.388;11.784;2022-10-04T16:18:28;22.11;63.13
68578;SHT31;61668;45.388;11.784;2022-10-04T16:21:09;22.07;63.65
68578;SHT31;61668;45.388;11.784;2022-10-04T16:23:40;22.05;64.03
68578;SHT31;61668;45.388;11.784;2022-10-04T16:40:34;21.71;65.22
68578;SHT31;61668;45.388;11.784;2022-10-04T16:49:14;21.52;65.90
68578;SHT31;61668;45.388;11.784;2022-10-04T17:06:34;21.18;67.13
68578;SHT31;61668;45.388;11.784;2022-10-04T17:20:43;20.83;68.12
68578;SHT31;61668;45.388;11.784;2022-10-04T17:29:49;20.72;68.80
68578;SHT31;61668;45.388;11.784;2022-10-04T17:41:11;20.56;69.52
68578;SHT31;61668;45.388;11.784;2022-10-04T17:52:11;20.39;70.16
68578;SHT31;61668;45.388;11.784;2022-10-04T17:55:25;20.36;70.38
68578;SHT31;61668;45.388;11.784;2022-10-04T18:01:25;20.23;70.74
68578;SHT31;61668;45.388;11.784;2022-10-04T18:04:07;20.16;70.94
68578;SHT31;61668;45.388;11.784;2022-10-04T18:06:54;20.10;71.11
68578;SHT31;61668;45.388;11.784;2022-10-04T18:12:26;19.99;71.31
68578;SHT31;61668;45.388;11.784;2022-10-04T18:17:41;19.92;71.57
68578;SHT31;61668;45.388;11.784;2022-10-04T18:22:50;19.88;71.80
68578;SHT31;61668;45.388;11.784;2022-10-04T18:25:26;19.85;71.87
68578;SHT31;61668;45.388;11.784;2022-10-04T18:30:55;19.77;72.09
68578;SHT31;61668;45.388;11.784;2022-10-04T18:33:28;19.72;72.32
68578;SHT31;61668;45.388;11.784;2022-10-04T18:38:44;19.68;72.45
68578;SHT31;61668;45.388;11.784;2022-10-04T18:41:24;19.65;72.62
68578;SHT31;61668;45.388;11.784;2022-10-04T18:44:12;19.62;72.74
68578;SHT31;61668;45.388;11.784;2022-10-04T18:46:41;19.57;72.70
68578;SHT31;61668;45.388;11.784;2022-10-04T18:49:14;19.52;72.72
68578;SHT31;61668;45.388;11.784;2022-10-04T18:54:27;19.41;72.78
68578;SHT31;61668;45.388;11.784;2022-10-04T19:09:00;19.20;73.33
68578;SHT31;61668;45.388;11.784;2022-10-04T19:11:49;19.17;73.43
68578;SHT31;61668;45.388;11.784;2022-10-04T19:14:24;19.11;73.40
68578;SHT31;61668;45.388;11.784;2022-10-04T19:17:04;19.05;73.49
68578;SHT31;61668;45.388;11.784;2022-10-04T19:25:39;18.86;73.91
68578;SHT31;61668;45.388;11.784;2022-10-04T19:28:18;18.79;73.98
68578;SHT31;61668;45.388;11.784;2022-10-04T19:36:36;18.68;74.49
68578;SHT31;61668;45.388;11.784;2022-10-04T19:42:22;18.64;74.54
68578;SHT31;61668;45.388;11.784;2022-10-04T19:47:53;18.51;74.85
68578;SHT31;61668;45.388;11.784;2022-10-04T19:50:29;18.49;74.89
68578;SHT31;61668;45.388;11.784;2022-10-04T19:53:05;18.50;74.94
68578;SHT31;61668;45.388;11.784;2022-10-04T20:01:18;18.45;75.05
68578;SHT31;61668;45.388;11.784;2022-10-04T20:03:50;18.40;75.09
68578;SHT31;61668;45.388;11.784;2022-10-04T20:06:56;18.35;75.23
68578;SHT31;61668;45.388;11.784;2022-10-04T20:17:59;18.31;75.54
68578;SHT31;61668;45.388;11.784;2022-10-04T20:23:06;18.27;75.62
68578;SHT31;61668;45.388;11.784;2022-10-04T20:28:10;18.15;75.67
68578;SHT31;61668;45.388;11.784;2022-10-04T20:30:59;18.08;75.77
68578;SHT31;61668;45.388;11.784;2022-10-04T20:36:08;18.04;75.98
68578;SHT31;61668;45.388;11.784;2022-10-04T20:38:57;18.07;76.09
68578;SHT31;61668;45.388;11.784;2022-10-04T20:43:58;18.08;76.34
68578;SHT31;61668;45.388;11.784;2022-10-04T20:46:26;18.08;76.50
68578;SHT31;61668;45.388;11.784;2022-10-04T20:49:15;18.07;76.59
68578;SHT31;61668;45.388;11.784;2022-10-04T20:51:46;18.08;76.68
68578;SHT31;61668;45.388;11.784;2022-10-04T20:54:16;18.10;76.78
68578;SHT31;61668;45.388;11.784;2022-10-04T20:56:47;18.10;76.76
68578;SHT31;61668;45.388;11.784;2022-10-04T20:59:14;18.13;76.93
68578;SHT31;61668;45.388;11.784;2022-10-04T21:01:42;18.16;76.90
68578;SHT31;61668;45.388;11.784;2022-10-04T21:04:35;18.20;76.90
68578;SHT31;61668;45.388;11.784;2022-10-04T21:07:11;18.23;76.98
68578;SHT31;61668;45.388;11.784;2022-10-04T21:09:42;18.27;77.13
68578;SHT31;61668;45.388;11.784;2022-10-04T21:12:27;18.31;77.13
68578;SHT31;61668;45.388;11.784;2022-10-04T21:18:04;18.42;77.07
68578;SHT31;61668;45.388;11.784;2022-10-04T21:23:16;18.47;76.86
68578;SHT31;61668;45.388;11.784;2022-10-04T21:26:17;18.49;76.90
68578;SHT31;61668;45.388;11.784;2022-10-04T21:28:56;18.51;76.90
68578;SHT31;61668;45.388;11.784;2022-10-04T21:31:23;18.53;76.98
68578;SHT31;61668;45.388;11.784;2022-10-04T21:33:49;18.51;77.02
68578;SHT31;61668;45.388;11.784;2022-10-04T21:36:15;18.53;76.93
68578;SHT31;61668;45.388;11.784;2022-10-04T21:38:40;18.54;76.82
68578;SHT31;61668;45.388;11.784;2022-10-04T21:41:06;18.54;76.82
68578;SHT31;61668;45.388;11.784;2022-10-04T21:43:32;18.54;76.89
68578;SHT31;61668;45.388;11.784;2022-10-04T21:45:57;18.54;76.91
68578;SHT31;61668;45.388;11.784;2022-10-04T21:48:24;18.55;77.02
68578;SHT31;61668;45.388;11.784;2022-10-04T21:50:51;18.57;76.94
68578;SHT31;61668;45.388;11.784;2022-10-04T21:53:18;18.60;76.99
68578;SHT31;61668;45.388;11.784;2022-10-04T21:55:45;18.62;76.92
68578;SHT31;61668;45.388;11.784;2022-10-04T21:58:11;18.62;76.89
68578;SHT31;61668;45.388;11.784;2022-10-04T22:00:37;18.62;76.87
68578;SHT31;61668;45.388;11.784;2022-10-04T22:03:02;18.62;76.95
68578;SHT31;61668;45.388;11.784;2022-10-04T22:05:28;18.61;77.00
68578;SHT31;61668;45.388;11.784;2022-10-04T22:07:54;18.61;76.88
68578;SHT31;61668;45.388;11.784;2022-10-04T22:10:19;18.60;76.69
68578;SHT31;61668;45.388;11.784;2022-10-04T22:12:45;18.59;76.74
68578;SHT31;61668;45.388;11.784;2022-10-04T22:15:10;18.60;76.70
68578;SHT31;61668;45.388;11.784;2022-10-04T22:17:36;18.63;76.70
68578;SHT31;61668;45.388;11.784;2022-10-04T22:20:02;18.66;76.64
68578;SHT31;61668;45.388;11.784;2022-10-04T22:22:28;18.66;76.58
68578;SHT31;61668;45.388;11.784;2022-10-04T22:24:55;18.67;76.53
68578;SHT31;61668;45.388;11.784;2022-10-04T22:27:22;18.67;76.66
68578;SHT31;61668;45.388;11.784;2022-10-04T22:29:48;18.66;76.64
68578;SHT31;61668;45.388;11.784;2022-10-04T22:34:51;18.63;76.60
68578;SHT31;61668;45.388;11.784;2022-10-04T22:37:26;18.62;76.61
68578;SHT31;61668;45.388;11.784;2022-10-04T22:39:53;18.61;76.60
68578;SHT31;61668;45.388;11.784;2022-10-04T22:42:19;18.62;76.70
68578;SHT31;61668;45.388;11.784;2022-10-04T22:44:52;18.63;76.70
68578;SHT31;61668;45.388;11.784;2022-10-04T22:47:17;18.64;76.65
68578;SHT31;61668;45.388;11.784;2022-10-04T22:49:44;18.65;76.60
68578;SHT31;61668;45.388;11.784;2022-10-04T22:52:13;18.65;76.58
68578;SHT31;61668;45.388;11.784;2022-10-04T22:54:43;18.65;76.58
68578;SHT31;61668;45.388;11.784;2022-10-04T22:57:12;18.64;76.58
68578;SHT31;61668;45.388;11.784;2022-10-04T22:59:41;18.65;76.59
68578;SHT31;61668;45.388;11.784;2022-10-04T23:02:16;18.68;76.65
68578;SHT31;61668;45.388;11.784;2022-10-04T23:04:46;18.70;76.70
68578;SHT31;61668;45.388;11.784;2022-10-04T23:07:16;18.75;76.70
68578;SHT31;61668;45.388;11.784;2022-10-04T23:09:43;18.78;76.71
68578;SHT31;61668;45.388;11.784;2022-10-04T23:12:09;18.81;76.70
68578;SHT31;61668;45.388;11.784;2022-10-04T23:14:37;18.82;76.76
68578;SHT31;61668;45.388;11.784;2022-10-04T23:19:53;18.78;76.70
68578;SHT31;61668;45.388;11.784;2022-10-04T23:22:27;18.76;76.75
68578;SHT31;61668;45.388;11.784;2022-10-04T23:24:54;18.77;76.84
68578;SHT31;61668;45.388;11.784;2022-10-04T23:27:21;18.78;76.88
68578;SHT31;61668;45.388;11.784;2022-10-04T23:29:48;18.79;76.90
68578;SHT31;61668;45.388;11.784;2022-10-04T23:32:23;18.78;76.94
68578;SHT31;61668;45.388;11.784;2022-10-04T23:34:49;18.77;76.99
68578;SHT31;61668;45.388;11.784;2022-10-04T23:37:19;18.75;77.04
68578;SHT31;61668;45.388;11.784;2022-10-04T23:39:51;18.71;77.14
68578;SHT31;61668;45.388;11.784;2022-10-04T23:42:18;18.72;77.25
68578;SHT31;61668;45.388;11.784;2022-10-04T23:44:53;18.74;77.28
68578;SHT31;61668;45.388;11.784;2022-10-04T23:47:21;18.75;77.14
68578;SHT31;61668;45.388;11.784;2022-10-04T23:49:51;18.75;77.13
68578;SHT31;61668;45.388;11.784;2022-10-04T23:52:21;18.75;77.11
68578;SHT31;61668;45.388;11.784;2022-10-04T23:54:58;18.77;77.09
68578;SHT31;61668;45.388;11.784;2022-10-04T23:57:25;18.77;76.97
68578;SHT31;61668;45.388;11.784;2022-10-04T23:59:52;18.77;76.99
